createdAt,value
2019-04-16T00:02:33.631Z,9.57
2019-04-16T00:05:27.513Z,8.40
2019-04-16T00:07:58.960Z,8.33
2019-04-16T00:10:44.853Z,9.43
2019-04-16T00:13:27.903Z,11.07
2019-04-16T00:16:00.791Z,8.67
2019-04-16T00:18:32.120Z,12.83
2019-04-16T00:21:21.071Z,9.70
2019-04-16T00:24:11.367Z,7.83
2019-04-16T00:26:42.804Z,9.50
2019-04-16T00:29:13.911Z,8.93
2019-04-16T00:31:49.783Z,9.40
2019-04-16T00:34:20.816Z,10.13
2019-04-16T00:36:51.920Z,9.50
2019-04-16T00:39:24.800Z,10.03
2019-04-16T00:41:55.516Z,8.80
2019-04-16T00:44:26.603Z,8.20
2019-04-16T00:46:57.612Z,11.73
2019-04-16T00:49:28.584Z,8.60
2019-04-16T00:51:59.881Z,8.43
2019-04-16T00:54:31.211Z,9.93
2019-04-16T00:57:02.565Z,11.03
2019-04-16T00:59:33.287Z,8.90
2019-04-16T01:02:04.521Z,9.63
2019-04-16T01:04:35.805Z,8.30
2019-04-16T01:07:06.804Z,10.37
2019-04-16T01:09:37.837Z,10.03
2019-04-16T01:12:08.878Z,8.53
2019-04-16T01:14:40.003Z,9.57
2019-04-16T01:17:10.980Z,8.93
2019-04-16T01:19:41.907Z,11.90
2019-04-16T01:22:15.997Z,6.37
2019-04-16T01:24:51.601Z,10.80
2019-04-16T01:27:21.064Z,8.90
2019-04-16T01:29:52.132Z,10.97
2019-04-16T01:32:42.660Z,8.07
2019-04-16T01:35:30.911Z,7.97
2019-04-16T01:38:22.616Z,8.97
2019-04-16T01:40:59.973Z,8.93
2019-04-16T01:43:31.111Z,7.50
2019-04-16T01:46:02.594Z,9.37
2019-04-16T01:48:38.646Z,7.23
2019-04-16T01:51:06.652Z,10.00
2019-04-16T01:53:37.647Z,7.80
2019-04-16T01:56:08.968Z,7.33
2019-04-16T01:58:39.915Z,8.87
2019-04-16T02:01:11.225Z,8.60
2019-04-16T02:03:43.603Z,8.20
2019-04-16T02:06:15.064Z,7.80
2019-04-16T02:08:45.895Z,7.30
2019-04-16T02:11:16.968Z,7.33
2019-04-16T02:13:48.167Z,8.70
2019-04-16T02:16:22.325Z,7.60
2019-04-16T02:18:52.843Z,7.23
2019-04-16T02:21:24.411Z,9.43
2019-04-16T02:23:55.580Z,10.63
2019-04-16T02:26:26.522Z,6.77
2019-04-16T02:28:58.946Z,8.00
2019-04-16T02:31:30.495Z,7.20
2019-04-16T02:34:02.573Z,7.53
2019-04-16T02:36:33.908Z,6.70
2019-04-16T02:39:07.681Z,9.57
2019-04-16T02:41:39.171Z,7.07
2019-04-16T02:44:14.077Z,7.00
2019-04-16T02:46:43.428Z,6.77
2019-04-16T02:49:14.625Z,9.00
2019-04-16T02:52:00.173Z,9.23
2019-04-16T02:54:53.272Z,6.73
2019-04-16T02:57:34.492Z,8.17
2019-04-16T03:00:17.584Z,9.27
2019-04-16T03:02:53.868Z,7.30
2019-04-16T03:05:33.329Z,7.70
2019-04-16T03:08:05.205Z,8.50
2019-04-16T03:10:37.504Z,7.47
2019-04-16T03:13:08.378Z,7.00
2019-04-16T03:16:02.774Z,7.60
2019-04-16T03:18:53.207Z,6.40
2019-04-16T03:21:27.237Z,6.33
2019-04-16T03:23:57.162Z,7.87
2019-04-16T03:26:27.807Z,9.03
2019-04-16T03:28:59.439Z,11.10
2019-04-16T03:31:30.542Z,7.47
2019-04-16T03:34:02.611Z,11.03
2019-04-16T03:36:33.824Z,6.77
2019-04-16T03:39:12.254Z,6.27
2019-04-16T03:41:39.327Z,9.83
2019-04-16T03:44:10.391Z,11.07
2019-04-16T03:46:46.093Z,9.07
2019-04-16T03:49:14.514Z,10.40
2019-04-16T03:51:45.904Z,6.57
2019-04-16T03:54:19.305Z,11.50
2019-04-16T03:56:49.235Z,8.47
2019-04-16T03:59:20.443Z,7.47
2019-04-16T04:01:51.683Z,6.53
2019-04-16T04:04:22.775Z,6.33
2019-04-16T04:06:54.075Z,7.93
2019-04-16T04:09:24.992Z,7.20
2019-04-16T04:11:56.024Z,7.10
2019-04-16T04:14:27.176Z,5.57
2019-04-16T04:16:58.505Z,11.13
2019-04-16T04:19:29.728Z,7.63
2019-04-16T04:22:00.872Z,6.80
2019-04-16T04:24:32.225Z,7.87
2019-04-16T04:27:03.525Z,8.63
2019-04-16T04:29:34.616Z,10.30
2019-04-16T04:32:05.633Z,6.80
2019-04-16T04:34:36.927Z,7.77
2019-04-16T04:37:08.320Z,7.53
2019-04-16T04:39:44.266Z,8.40
2019-04-16T04:42:14.640Z,10.77
2019-04-16T04:44:47.164Z,8.03
2019-04-16T04:47:20.062Z,7.47
2019-04-16T04:49:51.055Z,8.33
2019-04-16T04:52:22.587Z,7.57
2019-04-16T04:54:55.400Z,6.07
2019-04-16T04:57:28.428Z,5.70
2019-04-16T05:00:00.595Z,7.93
2019-04-16T05:02:33.244Z,6.60
2019-04-16T05:05:25.685Z,5.47
2019-04-16T05:07:59.722Z,5.67
2019-04-16T05:10:28.371Z,8.90
2019-04-16T05:12:59.470Z,5.47
2019-04-16T05:15:30.366Z,7.50
2019-04-16T05:18:01.680Z,6.13
2019-04-16T05:20:32.839Z,7.33
2019-04-16T05:23:03.797Z,6.50
2019-04-16T05:25:35.891Z,6.27
2019-04-16T05:28:11.690Z,5.93
2019-04-16T05:30:40.167Z,8.13
2019-04-16T05:33:11.384Z,6.97
2019-04-16T05:35:42.931Z,5.77
2019-04-16T05:38:14.005Z,6.50
2019-04-16T05:40:45.308Z,6.60
2019-04-16T05:43:16.178Z,6.60
2019-04-16T05:45:47.181Z,5.53
2019-04-16T05:48:18.632Z,8.03
2019-04-16T05:50:50.947Z,7.50
2019-04-16T05:53:22.177Z,6.37
2019-04-16T05:56:01.741Z,6.33
2019-04-16T05:58:32.951Z,7.77
2019-04-16T06:01:10.500Z,6.37
2019-04-16T06:03:41.193Z,6.80
2019-04-16T06:06:12.580Z,5.50
2019-04-16T06:08:43.487Z,5.63
2019-04-16T06:11:27.664Z,5.50
2019-04-16T06:14:26.159Z,5.90
2019-04-16T06:17:18.956Z,6.13
2019-04-16T06:20:01.683Z,6.63
2019-04-16T06:22:47.845Z,6.30
2019-04-16T06:25:56.191Z,7.07
2019-04-16T06:28:44.467Z,6.23
2019-04-16T06:31:36.293Z,5.83
2019-04-16T06:34:18.367Z,7.10
2019-04-16T06:37:09.471Z,7.33
2019-04-16T06:40:01.844Z,8.07
2019-04-16T06:42:55.419Z,7.30
2019-04-16T06:45:37.134Z,8.87
2019-04-16T06:48:13.165Z,7.70
2019-04-16T06:51:01.111Z,7.23
2019-04-16T06:53:38.375Z,8.90
2019-04-16T06:56:31.660Z,9.20
2019-04-16T06:59:37.370Z,7.67
2019-04-16T07:02:43.023Z,8.43
2019-04-16T07:05:37.231Z,10.03
2019-04-16T07:08:20.980Z,6.90
2019-04-16T07:10:57.151Z,8.23
2019-04-16T07:13:28.408Z,7.60
2019-04-16T07:15:59.623Z,6.80
2019-04-16T07:18:31.104Z,7.70
2019-04-16T07:21:02.325Z,14.87
2019-04-16T07:23:33.223Z,8.50
2019-04-16T07:26:04.705Z,8.87
2019-04-16T07:28:45.498Z,7.13
2019-04-16T07:31:33.951Z,7.93
2019-04-16T07:34:21.663Z,11.10
2019-04-16T07:37:14.851Z,7.03
2019-04-16T07:40:17.024Z,7.50
2019-04-16T07:43:10.484Z,7.17
2019-04-16T07:45:52.059Z,7.00
2019-04-16T07:48:47.903Z,8.60
2019-04-16T07:51:27.035Z,6.07
2019-04-16T07:54:21.798Z,8.27
2019-04-16T07:56:55.096Z,8.00
2019-04-16T07:59:26.100Z,7.77
2019-04-16T08:01:56.963Z,8.27
2019-04-16T08:04:29.213Z,8.33
2019-04-16T08:07:01.495Z,7.33
2019-04-16T08:09:33.716Z,6.50
2019-04-16T08:12:10.855Z,5.93
2019-04-16T08:14:38.665Z,6.20
2019-04-16T08:17:10.119Z,7.63
2019-04-16T08:19:41.132Z,7.67
2019-04-16T08:22:15.521Z,7.00
2019-04-16T08:24:47.744Z,8.00
2019-04-16T08:27:19.461Z,7.10
2019-04-16T08:29:50.668Z,9.40
2019-04-16T08:32:21.840Z,7.30
2019-04-16T08:34:52.995Z,11.20
2019-04-16T08:37:24.084Z,7.20
2019-04-16T08:39:55.203Z,10.43
2019-04-16T08:42:29.334Z,5.90
2019-04-16T08:44:58.722Z,7.73
2019-04-16T08:47:29.875Z,5.87
2019-04-16T08:50:01.059Z,8.07
2019-04-16T08:52:32.155Z,6.07
2019-04-16T08:55:03.327Z,4.90
2019-04-16T08:57:34.571Z,8.00
2019-04-16T09:00:08.027Z,6.37
2019-04-16T09:02:39.147Z,6.90
2019-04-16T09:05:11.675Z,6.47
2019-04-16T09:07:43.127Z,6.33
2019-04-16T09:10:23.497Z,6.43
2019-04-16T09:13:02.965Z,7.70
2019-04-16T09:15:31.423Z,5.40
2019-04-16T09:18:30.415Z,4.80
2019-04-16T09:21:03.047Z,8.23
2019-04-16T09:23:33.705Z,6.50
2019-04-16T09:26:23.990Z,6.67
2019-04-16T09:29:23.533Z,4.90
2019-04-16T09:32:14.820Z,6.30
2019-04-16T09:35:10.984Z,9.03
2019-04-16T09:38:13.081Z,5.33
2019-04-16T09:41:21.846Z,5.77
2019-04-16T09:43:57.263Z,8.07
2019-04-16T09:46:49.838Z,5.37
2019-04-16T09:49:04.792Z,6.17
2019-04-16T09:51:35.881Z,5.15
2019-04-16T09:54:12.535Z,7.50
2019-04-16T09:56:39.719Z,5.47
2019-04-16T09:59:44.598Z,6.73
2019-04-16T10:02:27.988Z,5.43
2019-04-16T10:04:59.288Z,6.33
2019-04-16T10:07:31.283Z,7.00
2019-04-16T10:10:03.454Z,6.50
2019-04-16T10:12:34.870Z,6.43
2019-04-16T10:15:08.229Z,7.75
2019-04-16T10:17:39.294Z,6.87
2019-04-16T10:20:10.462Z,8.53
2019-04-16T10:22:41.528Z,6.53
2019-04-16T10:25:14.596Z,6.23
2019-04-16T10:28:10.331Z,9.13
2019-04-16T10:30:49.327Z,6.37
2019-04-16T10:33:20.047Z,7.43
2019-04-16T10:35:51.116Z,8.75
2019-04-16T10:38:33.448Z,7.50
2019-04-16T10:41:07.435Z,8.67
2019-04-16T10:44:09.293Z,6.85
2019-04-16T10:46:48.518Z,9.20
2019-04-16T10:49:53.601Z,7.90
2019-04-16T10:52:42.095Z,7.40
2019-04-16T10:55:40.823Z,8.63
2019-04-16T10:58:49.256Z,7.83
2019-04-16T11:01:35.161Z,5.83
2019-04-16T11:04:14.739Z,9.60
2019-04-16T11:06:47.992Z,7.10
2019-04-16T11:09:19.892Z,8.03
2019-04-16T11:15:21.694Z,6.97
2019-04-16T11:17:52.986Z,8.10
2019-04-16T11:20:24.164Z,7.85
2019-04-16T11:22:55.539Z,7.65
2019-04-16T11:25:26.655Z,9.08
2019-04-16T11:27:57.815Z,7.12
2019-04-16T11:30:37.742Z,8.70
2019-04-16T11:33:08.959Z,8.50
2019-04-16T11:35:40.721Z,9.30
2019-04-16T11:38:11.707Z,11.00
2019-04-16T11:40:42.796Z,7.35
2019-04-16T11:43:14.463Z,7.97
2019-04-16T11:45:45.386Z,8.50
2019-04-16T11:48:16.488Z,6.67
2019-04-16T11:50:47.667Z,9.80
2019-04-16T11:53:19.307Z,9.53
2019-04-16T11:55:50.090Z,7.00
2019-04-16T11:58:52.376Z,7.33
2019-04-16T12:01:29.613Z,6.83
2019-04-16T12:04:22.587Z,8.93
2019-04-16T12:07:11.251Z,8.38
2019-04-16T12:10:01.372Z,10.03
2019-04-16T12:12:44.570Z,9.10
2019-04-16T12:15:40.644Z,8.78
2019-04-16T12:18:31.898Z,9.18
2019-04-16T12:21:11.513Z,10.28
2019-04-16T12:23:52.296Z,7.62
2019-04-16T12:26:48.762Z,8.68
2019-04-16T12:29:33.322Z,8.15
2019-04-16T12:32:22.074Z,8.90
2019-04-16T12:35:10.381Z,8.43
2019-04-16T12:37:59.284Z,9.18
2019-04-16T12:40:56.637Z,8.30
2019-04-16T12:43:52.719Z,10.18
2019-04-16T12:46:46.228Z,8.48
2019-04-16T12:49:34.576Z,9.03
2019-04-16T12:52:30.692Z,12.95
2019-04-16T12:55:19.329Z,9.73
2019-04-16T12:58:03.931Z,7.85
2019-04-16T13:01:08.711Z,11.55
2019-04-16T13:03:56.750Z,7.33
2019-04-16T13:06:39.082Z,9.13
2019-04-16T13:09:30.395Z,10.60
2019-04-16T13:12:11.264Z,11.40
2019-04-16T13:15:01.766Z,11.12
2019-04-16T13:17:54.700Z,7.75
2019-04-16T13:20:48.028Z,7.78
2019-04-16T13:23:50.924Z,8.33
2019-04-16T13:26:30.856Z,7.72
2019-04-16T13:29:04.132Z,7.78
2019-04-16T13:31:36.396Z,7.08
2019-04-16T13:34:08.247Z,9.90
2019-04-16T13:36:39.624Z,7.30
2019-04-16T13:39:42.652Z,8.03
2019-04-16T13:42:14.800Z,7.62
2019-04-16T13:44:48.748Z,8.78
2019-04-16T13:47:19.940Z,7.55
2019-04-16T13:49:55.704Z,6.92
2019-04-16T13:52:26.608Z,10.53
2019-04-16T13:55:18.355Z,9.35
2019-04-16T13:58:08.367Z,8.43
2019-04-16T14:00:46.700Z,7.42
2019-04-16T14:03:20.819Z,7.95
2019-04-16T14:05:53.087Z,11.25
2019-04-16T14:08:23.772Z,7.55
2019-04-16T14:10:55.876Z,7.30
2019-04-16T14:13:27.968Z,7.50
2019-04-16T14:15:59.352Z,8.68
2019-04-16T14:18:32.694Z,7.55
2019-04-16T14:21:03.936Z,6.40
2019-04-16T14:23:35.051Z,8.68
2019-04-16T14:26:06.432Z,8.03
2019-04-16T14:28:51.082Z,12.25
2019-04-16T14:31:15.797Z,7.23
2019-04-16T14:34:11.631Z,7.43
2019-04-16T14:36:42.888Z,8.20
2019-04-16T14:39:33.247Z,9.17
2019-04-16T14:42:04.620Z,8.33
2019-04-16T14:44:41.075Z,9.20
2019-04-16T14:47:12.181Z,10.40
2019-04-16T14:49:43.492Z,9.23
2019-04-16T14:52:14.260Z,10.13
2019-04-16T14:54:58.521Z,8.90
2019-04-16T14:57:29.812Z,10.60
2019-04-16T15:00:27.492Z,8.63
2019-04-16T15:03:03.736Z,10.50
2019-04-16T15:05:52.660Z,10.00
2019-04-16T15:08:34.471Z,11.03
2019-04-16T15:11:17.748Z,9.97
2019-04-16T15:14:00.726Z,10.87
2019-04-16T15:16:45.756Z,11.53
2019-04-16T15:19:28.517Z,9.33
2019-04-16T15:22:18.108Z,10.77
2019-04-16T15:25:00.169Z,9.10
2019-04-16T15:27:50.128Z,11.50
2019-04-16T15:30:40.344Z,7.93
2019-04-16T15:33:27.428Z,11.17
2019-04-16T15:36:06.064Z,11.53
2019-04-16T15:38:46.688Z,9.47
2019-04-16T15:41:36.836Z,11.03
2019-04-16T15:44:32.126Z,11.13
2019-04-16T15:47:31.868Z,9.80
2019-04-16T15:50:20.656Z,8.87
2019-04-16T15:53:16.528Z,7.97
2019-04-16T15:56:06.904Z,11.00
2019-04-16T15:58:50.095Z,11.47
2019-04-16T16:01:29.125Z,11.37
2019-04-16T16:04:22.581Z,11.00
2019-04-16T16:06:59.448Z,7.43
2019-04-16T16:09:52.612Z,9.40
2019-04-16T16:12:28.302Z,11.27
2019-04-16T16:15:00.512Z,9.70
2019-04-16T16:17:31.624Z,9.00
2019-04-16T16:20:03.120Z,9.47
2019-04-16T16:22:35.275Z,9.17
2019-04-16T16:25:08.229Z,9.03
2019-04-16T16:27:43.895Z,9.87
2019-04-16T16:30:15.045Z,7.63
2019-04-16T16:32:44.816Z,8.57
2019-04-16T16:35:17.801Z,7.10
2019-04-16T16:37:48.860Z,8.33
2019-04-16T16:40:20.124Z,8.37
2019-04-16T16:42:51.248Z,8.37
2019-04-16T16:45:24.691Z,9.57
2019-04-16T16:47:55.877Z,10.03
2019-04-16T16:50:26.880Z,9.80
2019-04-16T16:53:04.358Z,9.33
2019-04-16T16:55:56.932Z,11.20
2019-04-16T16:58:46.523Z,11.23
2019-04-16T17:01:38.776Z,11.67
2019-04-16T17:04:21.324Z,13.33
2019-04-16T17:06:52.248Z,11.00
2019-04-16T17:09:33.584Z,15.43
2019-04-16T17:12:04.896Z,13.70
2019-04-16T17:14:37.783Z,13.00
2019-04-16T17:17:13.821Z,14.13
2019-04-16T17:19:41.280Z,15.23
2019-04-16T17:22:14.727Z,8.90
2019-04-16T17:24:44.860Z,11.77
2019-04-16T17:27:16.039Z,11.50
2019-04-16T17:29:49.975Z,12.87
2019-04-16T17:32:20.440Z,10.40
2019-04-16T17:34:51.772Z,12.53
2019-04-16T17:37:27.790Z,12.43
2019-04-16T17:39:58.781Z,11.77
2019-04-16T17:42:38.861Z,12.57
2019-04-16T17:45:28.203Z,15.87
2019-04-16T17:48:24.964Z,12.20
2019-04-16T17:51:13.971Z,18.27
2019-04-16T17:54:07.564Z,14.97
2019-04-16T17:56:48.336Z,16.70
2019-04-16T17:59:44.060Z,17.83
2019-04-16T18:02:37.008Z,17.57
2019-04-16T18:05:27.876Z,15.03
2019-04-16T18:08:24.772Z,15.00
2019-04-16T18:11:15.219Z,19.77
2019-04-16T18:14:04.393Z,23.03
2019-04-16T18:16:55.851Z,17.83
2019-04-16T18:19:58.568Z,16.90
2019-04-16T18:22:35.145Z,18.97
2019-04-16T18:25:28.802Z,17.83
2019-04-16T18:28:05.352Z,17.67
2019-04-16T18:30:49.023Z,16.53
2019-04-16T18:33:45.732Z,18.60
2019-04-16T18:36:41.764Z,16.57
2019-04-16T18:39:41.273Z,16.53
2019-04-16T18:42:34.128Z,19.77
2019-04-16T18:45:18.987Z,20.07
2019-04-16T18:48:04.524Z,24.40
2019-04-16T18:50:33.256Z,23.00
2019-04-16T18:53:09.572Z,19.63
2019-04-16T18:55:37.692Z,21.93
2019-04-16T18:58:09.068Z,20.73
2019-04-16T19:00:44.180Z,18.93
2019-04-16T19:03:15.925Z,21.20
2019-04-16T19:05:47.687Z,20.20
2019-04-16T19:08:19.941Z,23.07
2019-04-16T19:10:51.848Z,20.57
2019-04-16T19:13:22.860Z,21.33
2019-04-16T19:15:54.281Z,24.30
2019-04-16T19:18:25.748Z,20.43
2019-04-16T19:20:56.744Z,24.20
2019-04-16T19:23:27.589Z,23.97
2019-04-16T19:25:59.085Z,21.33
2019-04-16T19:28:30.559Z,19.73
2019-04-16T19:31:02.879Z,19.50
2019-04-16T19:33:38.130Z,22.17
2019-04-16T19:36:07.740Z,18.40
2019-04-16T19:38:39.456Z,17.97
2019-04-16T19:41:12.188Z,17.73
2019-04-16T19:43:43.741Z,18.80
2019-04-16T19:46:15.584Z,16.23
2019-04-16T19:48:47.635Z,17.57
2019-04-16T19:51:19.841Z,16.03
2019-04-16T19:53:50.975Z,16.80
2019-04-16T19:56:22.343Z,16.17
2019-04-16T19:58:53.881Z,20.80
2019-04-16T20:01:25.204Z,15.40
2019-04-16T20:07:42.135Z,15.20
2019-04-16T20:10:14.232Z,19.20
2019-04-16T20:12:46.368Z,20.53
2019-04-16T20:15:17.852Z,15.13
2019-04-16T20:17:48.983Z,16.87
2019-04-16T20:20:20.499Z,14.43
2019-04-16T20:22:52.967Z,19.30
2019-04-16T20:25:26.476Z,18.20
2019-04-16T20:27:58.435Z,17.50
2019-04-16T20:30:29.780Z,19.17
2019-04-16T20:33:00.752Z,17.60
2019-04-16T20:35:31.932Z,17.67
2019-04-16T20:38:03.371Z,22.93
2019-04-16T20:40:34.796Z,20.77
2019-04-16T20:43:05.958Z,18.37
2019-04-16T20:45:38.707Z,13.23
2019-04-16T20:48:12.462Z,16.43
2019-04-16T20:50:43.131Z,17.87
2019-04-16T20:53:14.632Z,15.33
2019-04-16T20:55:47.423Z,16.20
2019-04-16T20:58:18.568Z,14.33
2019-04-16T21:00:51.423Z,17.33
2019-04-16T21:03:22.902Z,17.10
2019-04-16T21:05:58.868Z,12.77
2019-04-16T21:08:27.285Z,18.47
2019-04-16T21:10:59.446Z,21.17
2019-04-16T21:13:30.520Z,16.97
2019-04-16T21:16:02.862Z,15.77
2019-04-16T21:18:33.844Z,17.23
2019-04-16T21:21:04.683Z,17.50
2019-04-16T21:23:36.410Z,18.93
2019-04-16T21:26:07.482Z,15.70
2019-04-16T21:28:53.815Z,19.07
2019-04-16T21:31:29.443Z,16.80
2019-04-16T21:34:24.924Z,21.93
2019-04-16T21:37:14.048Z,20.43
2019-04-16T21:39:56.265Z,22.10
2019-04-16T21:42:27.439Z,24.90
2019-04-16T21:44:58.475Z,19.33
2019-04-16T21:47:29.575Z,21.13
2019-04-16T21:50:00.856Z,17.43
2019-04-16T21:52:32.084Z,18.83
2019-04-16T21:55:04.682Z,17.40
2019-04-16T21:57:35.782Z,19.60
2019-04-16T22:00:11.175Z,17.57
2019-04-16T22:02:44.849Z,18.00
2019-04-16T22:05:17.720Z,15.50
2019-04-16T22:07:49.035Z,19.03
2019-04-16T22:10:20.041Z,17.07
2019-04-16T22:12:51.464Z,14.67
2019-04-16T22:15:25.172Z,18.53
2019-04-16T22:17:54.751Z,18.87
2019-04-16T22:20:26.091Z,15.93
2019-04-16T22:22:57.014Z,16.23
2019-04-16T22:25:27.793Z,16.97
2019-04-16T22:27:58.524Z,15.33
2019-04-16T22:30:29.824Z,14.47
2019-04-16T22:33:04.982Z,19.13
2019-04-16T22:35:35.248Z,15.17
2019-04-16T22:38:06.494Z,16.77
2019-04-16T22:40:56.144Z,14.60
2019-04-16T22:43:44.571Z,14.87
2019-04-16T22:46:40.411Z,12.10
2019-04-16T22:49:12.072Z,12.03
2019-04-16T22:51:43.199Z,10.43
2019-04-16T22:54:14.792Z,9.53
2019-04-16T22:56:51.519Z,10.20
2019-04-16T22:59:22.400Z,9.90
2019-04-16T23:01:53.619Z,9.53
2019-04-16T23:04:25.968Z,10.57
2019-04-16T23:06:57.569Z,10.80
2019-04-16T23:09:31.052Z,9.37
2019-04-16T23:12:02.156Z,7.33
2019-04-16T23:14:34.841Z,8.97
2019-04-16T23:17:06.705Z,7.97
2019-04-16T23:19:37.436Z,8.77
2019-04-16T23:22:08.640Z,9.77
2019-04-16T23:24:39.703Z,10.10
2019-04-16T23:27:10.993Z,9.07
2019-04-16T23:29:47.312Z,6.87
2019-04-16T23:32:14.439Z,7.53
2019-04-16T23:34:45.558Z,7.97
2019-04-16T23:37:22.985Z,7.87
2019-04-16T23:39:50.555Z,7.13
2019-04-16T23:42:21.844Z,9.13
2019-04-16T23:45:10.659Z,7.17
2019-04-16T23:48:01.032Z,6.70
2019-04-16T23:50:51.172Z,7.10
2019-04-16T23:53:43.128Z,8.27
2019-04-16T23:56:35.855Z,11.00
2019-04-16T23:59:14.138Z,8.97
